Time;durP1;ratioP1;P1;durP2;ratioP2;P2;SDS_P1;SDS_P2;PMS_P1;PMS_P2;Temp;Humidity;BMP_temperature;BMP_pressure;BME280_temperature;BME280_humidity;BME280_pressure;Samples;Min_cycle;Max_cycle;Signal;HPM_P1;HPM_P2
2022/02/08 00:00:25;;;;;;;7.68;2.65;;;;;;;-0.97;100.00;100243.56;5004602;28;20036;-70
2022/02/08 00:02:53;;;;;;;8.88;2.88;;;;;;;-0.88;100.00;100239.47;5002248;28;20025;-71
2022/02/08 00:05:21;;;;;;;8.68;2.80;;;;;;;-0.73;100.00;100235.84;5004126;28;20026;-71
2022/02/08 00:07:50;;;;;;;8.57;2.10;;;;;;;-0.56;98.72;100255.19;5005354;28;20143;-69
2022/02/08 00:10:17;;;;;;;12.85;2.33;;;;;;;-0.47;98.03;100257.28;5005506;28;20034;-69
2022/02/08 00:12:43;;;;;;;13.65;3.25;;;;;;;-0.52;97.83;100254.91;5004721;28;20029;-71
2022/02/08 00:15:09;;;;;;;10.10;2.35;;;;;;;-0.57;98.06;100245.53;5004455;28;20034;-71
2022/02/08 00:17:35;;;;;;;9.07;2.20;;;;;;;-0.47;97.39;100259.94;5002374;28;20027;-71
2022/02/08 00:20:03;;;;;;;6.45;2.22;;;;;;;-0.35;97.06;100266.28;5011940;28;20036;-71
2022/02/08 00:22:29;;;;;;;6.72;2.15;;;;;;;-0.52;97.13;100243.44;5008377;28;20029;-70
2022/02/08 00:24:54;;;;;;;5.63;2.17;;;;;;;-0.37;97.23;100255.72;5002151;28;20038;-70
2022/02/08 00:27:20;;;;;;;6.63;2.40;;;;;;;-0.44;96.29;100233.16;4998141;28;20084;-71
2022/02/08 00:29:45;;;;;;;9.65;2.85;;;;;;;-0.28;95.38;100238.34;5004296;28;20064;-71
2022/02/08 00:32:10;;;;;;;7.95;2.20;;;;;;;-0.11;95.32;100264.69;5002675;28;20109;-72
2022/02/08 00:34:36;;;;;;;7.72;1.90;;;;;;;-0.03;94.49;100259.75;5002605;28;20116;-70
2022/02/08 00:37:01;;;;;;;10.02;2.08;;;;;;;0.01;93.80;100246.25;5002465;28;20057;-70
2022/02/08 00:39:29;;;;;;;4.95;2.28;;;;;;;0.16;93.72;100262.06;5002541;28;20372;-72
2022/02/08 00:42:02;;;;;;;10.65;3.58;;;;;;;0.32;92.93;100275.19;5002953;28;20032;-71
2022/02/08 00:44:33;;;;;;;8.50;2.90;;;;;;;0.29;92.60;100269.22;5002257;28;20029;-71
2022/02/08 00:47:12;;;;;;;14.88;4.40;;;;;;;0.32;92.58;100271.69;4999772;28;20029;-71
2022/02/08 00:49:41;;;;;;;16.63;4.40;;;;;;;0.29;92.23;100258.56;5001595;28;20575;-70
2022/02/08 00:52:13;;;;;;;9.52;2.25;;;;;;;0.39;92.23;100264.97;5000510;28;20055;-71
2022/02/08 00:54:39;;;;;;;5.68;1.90;;;;;;;0.35;92.46;100269.66;5003902;28;20076;-70
2022/02/08 00:57:05;;;;;;;8.68;2.42;;;;;;;0.38;91.94;100272.13;5002859;28;20030;-70
2022/02/08 00:59:30;;;;;;;10.85;3.10;;;;;;;0.21;91.92;100254.63;5003392;28;20061;-70
2022/02/08 01:01:55;;;;;;;13.60;2.58;;;;;;;0.41;92.16;100271.06;5001214;28;20030;-70
2022/02/08 01:04:23;;;;;;;7.55;2.78;;;;;;;0.37;91.42;100259.78;5000078;28;20030;-71
2022/02/08 01:06:48;;;;;;;5.97;2.33;;;;;;;0.48;91.82;100280.34;5001173;28;20222;-71
2022/02/08 01:09:19;;;;;;;6.75;1.67;;;;;;;0.34;90.99;100253.78;4999163;28;20045;-71
2022/02/08 01:11:51;;;;;;;9.23;1.75;;;;;;;0.47;90.55;100257.31;5001681;28;20533;-70
2022/02/08 01:14:17;;;;;;;4.78;1.52;;;;;;;0.50;90.00;100256.28;5001913;28;20033;-69
2022/02/08 01:16:42;;;;;;;5.95;1.70;;;;;;;0.24;90.09;100215.44;4999490;28;20044;-71
2022/02/08 01:19:08;;;;;;;6.47;1.80;;;;;;;0.52;90.17;100275.66;5002977;28;20033;-71
2022/02/08 01:21:33;;;;;;;6.38;1.60;;;;;;;0.49;89.92;100271.41;5001297;28;20029;-71
2022/02/08 01:24:00;;;;;;;7.05;1.50;;;;;;;0.40;89.68;100253.41;4998536;28;20029;-70
2022/02/08 01:26:27;;;;;;;7.40;1.65;;;;;;;0.38;89.07;100249.97;5000559;28;22727;-70
2022/02/08 01:29:38;;;;;;;9.00;1.80;;;;;;;0.49;89.74;100278.53;5000793;28;20128;-70
2022/02/08 01:31:46;;;;;;;7.25;1.73;;;;;;;0.56;89.08;100270.03;4998917;28;20045;-70
2022/02/08 01:34:27;;;;;;;5.63;1.58;;;;;;;0.55;89.04;100278.13;5000154;28;20093;-71
2022/02/08 01:39:36;;;;;;;8.68;2.00;;;;;;;0.48;89.71;100276.84;4999550;28;20067;-69
2022/02/08 01:42:30;;;;;;;6.65;1.73;;;;;;;0.49;89.58;100270.56;5000619;28;20038;-70
2022/02/08 01:47:45;;;;;;;11.95;1.83;;;;;;;0.51;89.51;100255.34;5001297;28;20053;-69
2022/02/08 01:50:12;;;;;;;7.53;1.77;;;;;;;0.54;89.37;100250.63;5002021;28;20022;-71
2022/02/08 01:52:41;;;;;;;6.18;1.98;;;;;;;0.62;89.26;100258.13;4998535;28;20030;-70
2022/02/08 01:55:09;;;;;;;6.07;1.33;;;;;;;0.68;88.68;100267.50;5000329;28;20115;-71
2022/02/08 01:57:35;;;;;;;3.58;1.67;;;;;;;0.68;88.49;100263.00;5001159;28;20042;-70
2022/02/08 02:00:04;;;;;;;8.32;2.00;;;;;;;0.71;88.34;100256.63;5001830;28;20036;-69
2022/02/08 02:02:30;;;;;;;5.25;1.73;;;;;;;0.84;88.18;100254.84;5000811;28;20042;-71
2022/02/08 02:04:55;;;;;;;5.20;1.35;;;;;;;0.84;87.89;100252.19;5004071;28;20047;-71
2022/02/08 02:07:21;;;;;;;9.85;1.73;;;;;;;0.71;87.70;100235.31;5000852;28;20491;-70
2022/02/08 02:09:46;;;;;;;5.93;1.40;;;;;;;0.84;87.39;100252.19;5000627;28;20114;-70
2022/02/08 02:12:13;;;;;;;3.83;1.50;;;;;;;0.83;88.03;100255.78;5001016;28;20075;-71
2022/02/08 02:14:40;;;;;;;3.17;1.30;;;;;;;0.60;88.46;100238.72;5000309;28;20399;-69
2022/02/08 02:17:08;;;;;;;6.55;1.60;;;;;;;0.72;89.29;100263.69;5000139;28;20030;-71
2022/02/08 02:19:33;;;;;;;11.18;1.92;;;;;;;0.76;88.55;100259.81;5000735;28;20053;-71
2022/02/08 02:22:01;;;;;;;4.72;1.38;;;;;;;0.70;88.80;100246.94;4999995;28;20998;-70
2022/02/08 02:24:27;;;;;;;6.55;1.52;;;;;;;0.80;88.71;100253.34;5000548;28;21582;-69
2022/02/08 02:26:54;;;;;;;9.63;1.70;;;;;;;0.63;88.95;100218.06;5000680;28;20029;-71
2022/02/08 02:29:21;;;;;;;10.60;2.08;;;;;;;0.75;88.28;100232.34;4999903;28;20529;-70
2022/02/08 02:31:48;;;;;;;7.68;1.98;;;;;;;0.56;88.19;100199.94;5002057;28;20087;-70
2022/02/08 02:34:17;;;;;;;7.05;1.77;;;;;;;0.88;87.81;100232.34;5001216;28;20144;-70
2022/02/08 02:36:43;;;;;;;7.00;1.88;;;;;;;0.92;87.64;100228.53;4997811;28;20024;-69
2022/02/08 02:39:08;;;;;;;4.43;1.48;;;;;;;0.87;88.19;100214.66;4999716;28;20029;-70
2022/02/08 02:41:38;;;;;;;5.97;1.58;;;;;;;1.07;87.27;100231.91;5000114;28;20060;-71
2022/02/08 02:44:06;;;;;;;6.57;1.48;;;;;;;1.12;86.29;100235.13;4999626;28;20112;-69
2022/02/08 02:46:32;;;;;;;7.90;1.35;;;;;;;1.08;86.26;100218.50;5001396;28;20072;-71
2022/02/08 02:48:57;;;;;;;7.63;1.05;;;;;;;1.31;86.09;100237.34;4999392;28;20029;-69
2022/02/08 02:51:24;;;;;;;7.35;1.30;;;;;;;1.34;85.89;100252.25;5000721;28;20041;-71
2022/02/08 02:53:49;;;;;;;6.93;1.52;;;;;;;1.37;85.37;100244.91;4999791;28;20025;-69
2022/02/08 02:56:15;;;;;;;5.32;1.05;;;;;;;1.21;85.64;100218.47;4999308;28;20036;-71
2022/02/08 02:58:41;;;;;;;4.63;1.67;;;;;;;1.24;85.62;100225.41;5001123;28;20040;-71
2022/02/08 03:19:55;;;;;;;9.45;1.40;;;;;;;1.36;85.61;100243.19;5028312;28;20500;-69
2022/02/08 03:22:20;;;;;;;9.45;1.73;;;;;;;1.30;86.64;100244.47;5022201;28;20033;-68
2022/02/08 03:24:45;;;;;;;10.98;1.33;;;;;;;1.21;86.20;100225.63;5018547;28;20033;-68
2022/02/08 03:27:11;;;;;;;3.75;1.15;;;;;;;1.22;87.03;100241.50;5017523;28;20029;-68
2022/02/08 03:29:36;;;;;;;6.63;1.13;;;;;;;1.19;86.79;100232.88;5022555;28;20037;-68
2022/02/08 03:32:01;;;;;;;7.20;1.35;;;;;;;1.23;86.96;100245.88;5024840;28;20025;-68
2022/02/08 03:34:27;;;;;;;7.78;1.52;;;;;;;1.26;87.22;100243.00;5025019;28;21148;-69
2022/02/08 03:36:52;;;;;;;6.20;1.60;;;;;;;1.35;86.99;100252.16;5023100;28;20029;-68
2022/02/08 03:39:30;;;;;;;3.45;1.00;;;;;;;1.21;86.55;100220.31;5024897;28;20371;-69
2022/02/08 03:42:05;;;;;;;7.75;1.00;;;;;;;1.34;86.03;100239.78;5021705;28;20029;-69
2022/02/08 03:44:32;;;;;;;7.40;1.45;;;;;;;1.49;85.68;100251.16;5021930;28;20037;-69
2022/02/08 03:46:57;;;;;;;6.60;1.23;;;;;;;1.52;85.92;100259.81;5023895;28;20025;-68
2022/02/08 03:49:23;;;;;;;3.15;1.30;;;;;;;1.49;85.77;100257.38;5024060;28;20380;-68
2022/02/08 03:51:54;;;;;;;4.65;1.00;;;;;;;1.57;85.81;100261.28;5025573;28;20076;-68
2022/02/08 03:54:20;;;;;;;5.53;1.25;;;;;;;1.65;85.65;100265.13;5021108;28;20558;-68
2022/02/08 03:56:46;;;;;;;7.72;1.40;;;;;;;1.65;85.19;100269.59;5022217;28;20037;-68
2022/02/08 03:59:13;;;;;;;4.00;0.93;;;;;;;1.70;84.57;100267.44;5023456;28;20047;-69
2022/02/08 04:02:04;;;;;;;7.57;1.25;;;;;;;1.71;85.27;100263.84;5023080;28;20033;-69
2022/02/08 04:05:33;;;;;;;4.68;1.10;;;;;;;1.59;84.47;100238.03;5022788;28;20045;-69
2022/02/08 04:07:37;;;;;;;4.50;1.25;;;;;;;1.67;84.53;100246.31;5017520;28;20071;-69
2022/02/08 04:10:05;;;;;;;5.65;1.35;;;;;;;1.60;84.71;100245.94;5025437;28;20054;-69
2022/02/08 04:12:39;;;;;;;5.20;1.50;;;;;;;1.66;84.54;100242.81;5022438;28;20025;-69
2022/02/08 04:15:23;;;;;;;5.47;1.25;;;;;;;1.75;84.32;100257.28;5020327;28;20068;-69
2022/02/08 04:42:18;;;;;;;4.32;1.48;;;;;;;1.75;84.36;100255.47;5026519;28;20989;-75
2022/02/08 04:44:26;;;;;;;4.35;1.52;;;;;;;1.82;83.76;100269.22;5026737;28;20065;-74
2022/02/08 04:47:04;;;;;;;;;;;;;;;1.88;83.61;100275.94;5042029;28;20012;-73
2022/02/08 04:49:29;;;;;;;5.32;1.13;;;;;;;1.73;83.42;100251.25;5026672;28;19924;-74
2022/02/08 04:51:59;;;;;;;4.05;1.27;;;;;;;1.82;83.34;100263.91;5029389;28;20022;-72
2022/02/08 04:54:45;;;;;;;6.07;1.30;;;;;;;1.95;82.99;100285.22;5021562;28;20034;-73
2022/02/08 05:35:27;;;;;;;9.77;1.50;;;;;;;1.95;81.61;100240.69;5026459;28;20044;-75
2022/02/08 05:43:45;;;;;;;5.72;1.08;;;;;;;2.01;81.59;100249.19;5001792;28;20021;-71
2022/02/08 05:48:44;;;;;;;9.05;1.30;;;;;;;1.93;81.26;100239.94;5023711;28;20482;-72
2022/02/08 05:51:19;;;;;;;11.45;1.58;;;;;;;2.00;81.24;100256.38;5035683;28;20029;-69
2022/02/08 05:53:46;;;;;;;10.60;1.95;;;;;;;2.15;81.42;100268.59;5024399;28;20052;-69
2022/02/08 05:56:14;;;;;;;9.88;1.55;;;;;;;2.27;80.84;100277.50;5020955;28;20045;-69
2022/02/08 05:58:41;;;;;;;7.45;1.65;;;;;;;2.18;80.78;100248.81;5020444;28;20030;-71
2022/02/08 06:01:07;;;;;;;8.10;1.70;;;;;;;2.21;80.63;100248.59;5021413;28;20044;-71
2022/02/08 06:03:32;;;;;;;7.53;1.70;;;;;;;2.07;79.71;100216.72;5019540;28;20029;-68
2022/02/08 06:05:58;;;;;;;4.63;1.45;;;;;;;2.24;79.88;100247.50;5020770;28;20879;-70
2022/02/08 06:08:23;;;;;;;6.35;1.38;;;;;;;2.26;80.01;100262.44;5019354;28;20043;-68
2022/02/08 06:10:53;;;;;;;7.15;1.30;;;;;;;2.30;80.27;100260.38;5020282;28;20025;-69
2022/02/08 06:13:20;;;;;;;9.70;1.10;;;;;;;2.14;80.33;100239.31;5019674;28;20033;-70
2022/02/08 06:15:48;;;;;;;6.82;1.65;;;;;;;2.17;81.13;100245.31;5019921;28;22748;-70
2022/02/08 06:18:14;;;;;;;4.28;1.13;;;;;;;2.29;80.60;100251.53;5016618;28;20041;-69
2022/02/08 06:20:39;;;;;;;6.05;1.67;;;;;;;2.18;80.48;100220.28;5019977;28;20060;-70
2022/02/08 06:23:04;;;;;;;4.35;1.58;;;;;;;2.13;80.64;100213.59;5020725;28;20475;-69
2022/02/08 06:25:30;;;;;;;5.72;1.65;;;;;;;2.22;80.19;100220.91;5018257;28;20029;-67
2022/02/08 06:27:55;;;;;;;7.53;1.20;;;;;;;2.23;80.11;100227.09;5019025;28;20040;-70
2022/02/08 06:30:24;;;;;;;5.88;1.40;;;;;;;2.28;80.16;100220.47;5016811;28;20039;-69
2022/02/08 06:32:51;;;;;;;;;;;;;;;2.05;80.49;100198.16;5009294;28;20029;-70
2022/02/08 06:35:23;;;;;;;4.25;1.00;;;;;;;2.33;80.18;100239.66;5012933;28;19928;-69
2022/02/08 06:37:49;;;;;;;3.65;1.30;;;;;;;2.51;79.43;100268.59;5017598;28;20018;-68
2022/02/08 06:40:14;;;;;;;6.38;1.17;;;;;;;2.37;79.24;100270.50;5017620;28;20088;-69
2022/02/08 06:42:42;;;;;;;6.45;1.23;;;;;;;2.40;79.81;100269.41;5020125;28;20028;-77
2022/02/08 06:45:09;;;;;;;5.32;1.17;;;;;;;2.46;79.81;100282.31;5017943;28;20029;-71
2022/02/08 06:47:35;;;;;;;10.20;1.42;;;;;;;2.40;80.30;100283.63;5034570;28;20029;-70
2022/02/08 06:50:01;;;;;;;5.18;1.10;;;;;;;2.36;80.07;100273.31;5019789;28;20479;-70
2022/02/08 06:52:26;;;;;;;8.52;1.42;;;;;;;2.50;79.86;100288.28;5018844;28;20112;-70
2022/02/08 06:54:52;;;;;;;6.20;1.65;;;;;;;2.34;79.39;100265.38;5020751;28;20720;-71
2022/02/08 06:57:18;;;;;;;8.15;1.77;;;;;;;2.59;79.44;100304.47;5022017;28;20067;-74
2022/02/08 06:59:50;;;;;;;8.35;2.13;;;;;;;2.46;79.39;100276.97;5025989;28;20067;-72
2022/02/08 07:02:16;;;;;;;5.47;1.48;;;;;;;2.59;79.34;100292.91;5022491;28;22804;-75
2022/02/08 07:04:41;;;;;;;5.97;1.50;;;;;;;2.53;78.96;100277.38;5029954;28;20075;-74
2022/02/08 07:07:08;;;;;;;5.95;1.55;;;;;;;2.58;79.95;100300.09;5025654;28;20029;-71
2022/02/08 07:09:33;;;;;;;7.80;2.15;;;;;;;2.71;80.06;100292.00;5023729;28;20022;-74
2022/02/08 07:12:00;;;;;;;8.43;1.65;;;;;;;2.75;79.71;100280.13;5025147;28;20033;-74
2022/02/08 07:14:29;;;;;;;7.35;1.50;;;;;;;2.76;78.77;100267.59;5024889;28;20025;-74
2022/02/08 07:16:55;;;;;;;9.50;1.85;;;;;;;2.82;79.68;100294.69;5023483;28;20021;-73
2022/02/08 07:19:20;;;;;;;6.25;1.50;;;;;;;2.67;79.57;100269.13;5027231;28;20109;-74
2022/02/08 07:21:45;;;;;;;6.38;1.48;;;;;;;2.73;79.93;100276.72;5024581;28;21497;-74
2022/02/08 07:24:11;;;;;;;7.18;1.60;;;;;;;2.60;80.67;100259.91;5023967;28;20037;-73
2022/02/08 07:26:37;;;;;;;10.23;1.45;;;;;;;2.65;82.74;100279.13;5024120;28;20382;-73
2022/02/08 07:29:03;;;;;;;11.00;1.70;;;;;;;2.71;81.04;100289.34;5021463;28;20036;-72
2022/02/08 07:31:36;;;;;;;11.30;1.55;;;;;;;2.71;81.53;100275.13;5023904;28;20158;-72
2022/02/08 07:39:49;;;;;;;10.20;1.60;;;;;;;2.97;81.58;100303.38;5023064;28;20206;-71
2022/02/08 07:42:10;;;;;;;5.45;1.50;;;;;;;2.94;81.29;100308.97;5025889;28;20049;-71
2022/02/08 07:44:36;;;;;;;8.40;1.58;;;;;;;2.88;81.30;100279.16;5026255;28;20025;-73
2022/02/08 07:47:01;;;;;;;7.53;1.58;;;;;;;2.88;81.07;100284.50;5030407;28;20025;-72
2022/02/08 07:49:27;;;;;;;9.80;1.60;;;;;;;2.44;80.90;100192.56;5042578;28;20532;-73
2022/02/08 07:51:52;;;;;;;6.15;1.80;;;;;;;2.44;80.27;100192.56;5036589;28;20555;-74
2022/02/08 07:54:18;;;;;;;5.90;1.48;;;;;;;3.15;80.46;100300.28;5030326;28;20140;-74
2022/02/08 07:56:43;;;;;;;4.45;1.23;;;;;;;3.22;80.80;100296.13;5028488;28;20111;-74
2022/02/08 07:59:09;;;;;;;5.97;1.48;;;;;;;3.29;80.84;100292.00;5027879;28;22618;-74
2022/02/08 08:01:34;;;;;;;10.90;1.50;;;;;;;3.40;79.54;100293.84;5020952;28;20116;-71
2022/02/08 08:04:00;;;;;;;6.82;2.25;;;;;;;3.37;80.05;100272.69;5021498;28;20037;-71
2022/02/08 08:06:25;;;;;;;7.93;2.05;;;;;;;3.40;78.46;100259.91;5015883;28;21509;-73
2022/02/08 08:08:51;;;;;;;11.00;1.95;;;;;;;3.64;78.67;100275.84;5030986;28;20037;-73
2022/02/08 08:11:24;;;;;;;8.07;1.83;;;;;;;3.50;77.79;100254.69;5023631;28;20112;-70
2022/02/08 08:14:02;;;;;;;5.13;1.48;;;;;;;3.66;78.53;100279.22;5028619;28;20037;-72
2022/02/08 08:19:07;;;;;;;11.18;2.42;;;;;;;3.63;78.13;100243.84;5023850;28;20141;-70
2022/02/08 08:21:33;;;;;;;6.85;1.50;;;;;;;3.81;77.83;100262.94;5031063;28;20028;-71
2022/02/08 08:24:01;;;;;;;7.53;1.60;;;;;;;3.58;76.84;100230.81;5031971;28;20056;-72
2022/02/08 08:26:26;;;;;;;10.48;1.67;;;;;;;4.03;76.99;100270.91;5044454;28;20035;-71
2022/02/08 08:28:52;;;;;;;10.05;1.75;;;;;;;4.11;76.67;100267.59;5027249;28;20033;-71
2022/02/08 08:31:18;;;;;;;10.38;1.63;;;;;;;4.07;76.29;100264.34;5019816;28;20127;-71
2022/02/08 08:33:43;;;;;;;8.68;1.35;;;;;;;4.19;75.66;100243.72;5021543;28;20039;-70
2022/02/08 08:36:10;;;;;;;5.35;1.70;;;;;;;4.51;74.29;100270.53;5024715;28;20913;-72
2022/02/08 08:38:35;;;;;;;11.02;1.92;;;;;;;4.81;72.92;100266.22;5022166;28;20170;-70
2022/02/08 08:51:46;;;;;;;6.88;1.90;;;;;;;5.70;67.23;100227.13;5025643;28;20082;-72
2022/02/08 08:54:12;;;;;;;9.68;1.80;;;;;;;5.82;67.54;100270.00;5021375;28;21090;-71
2022/02/08 08:56:39;;;;;;;11.50;1.92;;;;;;;5.81;66.79;100270.97;5018837;28;20029;-70
2022/02/08 08:59:06;;;;;;;7.35;1.70;;;;;;;5.97;67.04;100263.25;5020046;28;20033;-69
2022/02/08 09:01:31;;;;;;;13.35;2.88;;;;;;;6.33;66.27;100250.16;5021438;28;20029;-75
2022/02/08 09:03:57;;;;;;;10.48;1.83;;;;;;;7.09;63.81;100239.47;5027560;28;22252;-74
2022/02/08 09:06:22;;;;;;;8.80;1.65;;;;;;;8.25;59.26;100226.41;5034192;23;20047;-77
2022/02/08 09:08:48;;;;;;;6.30;1.90;;;;;;;8.29;59.09;100227.81;5024642;28;20025;-74
2022/02/08 09:16:26;;;;;;;11.15;1.95;;;;;;;7.00;62.78;100243.06;5018861;28;21672;-74
2022/02/08 09:24:18;;;;;;;10.35;2.00;;;;;;;6.64;65.32;100274.25;5026949;28;20072;-76
2022/02/08 09:29:50;;;;;;;6.00;1.38;;;;;;;7.25;65.01;100246.94;5026488;28;20044;-69
2022/02/08 09:33:01;;;;;;;9.20;1.63;;;;;;;7.44;62.91;100252.28;5015760;28;20498;-72
2022/02/08 09:35:02;;;;;;;11.70;1.73;;;;;;;7.55;63.44;100255.78;5006515;28;20045;-70
2022/02/08 09:37:27;;;;;;;9.48;1.50;;;;;;;7.63;63.25;100234.34;5014406;28;20052;-71
2022/02/08 09:39:53;;;;;;;4.75;1.23;;;;;;;7.71;63.14;100247.06;5015661;28;20091;-71
2022/02/08 09:42:19;;;;;;;6.53;1.30;;;;;;;7.56;63.03;100234.06;5015504;28;20124;-69
2022/02/08 09:44:44;;;;;;;4.18;1.15;;;;;;;8.12;61.15;100248.34;5017967;28;20056;-71
2022/02/08 09:47:15;;;;;;;4.70;1.58;;;;;;;8.30;61.16;100254.63;5012663;28;20155;-69
2022/02/08 09:49:49;;;;;;;9.02;1.40;;;;;;;8.45;59.97;100243.34;5012557;28;20120;-73
2022/02/08 09:52:15;;;;;;;8.05;1.30;;;;;;;8.41;60.50;100240.13;5017010;28;20032;-75
2022/02/08 09:54:40;;;;;;;11.35;1.83;;;;;;;8.24;60.34;100259.78;5028850;28;20083;-74
2022/02/08 09:57:05;;;;;;;9.68;1.77;;;;;;;7.91;61.51;100240.53;5020097;28;20483;-75
2022/02/08 09:59:34;;;;;;;14.52;2.00;;;;;;;9.01;59.34;100258.28;5018071;28;20033;-68
2022/02/08 10:02:00;;;;;;;7.40;2.13;;;;;;;9.57;57.95;100250.72;5021001;28;20614;-70
2022/02/08 10:04:25;;;;;;;10.18;1.63;;;;;;;10.51;53.44;100226.19;5023387;28;20049;-76
2022/02/08 10:06:52;;;;;;;7.35;1.88;;;;;;;10.22;53.21;100226.63;5021118;28;20022;-72
2022/02/08 10:09:18;;;;;;;9.32;1.48;;;;;;;9.39;55.54;100235.44;5025376;28;20073;-72
2022/02/08 10:11:56;;;;;;;11.65;1.88;;;;;;;9.94;55.30;100253.06;5022994;28;20029;-72
2022/02/08 10:14:41;;;;;;;7.90;1.93;;;;;;;9.77;55.37;100246.78;5021809;28;20033;-73
2022/02/08 10:21:31;;;;;;;7.18;1.67;;;;;;;8.72;58.14;100245.97;5023706;28;20116;-76
2022/02/08 10:22:49;;;;;;;13.93;1.65;;;;;;;8.72;58.34;100231.59;5019442;28;20486;-77
2022/02/08 10:25:28;;;;;;;5.15;1.25;;;;;;;9.19;56.98;100209.66;5028724;28;20025;-78
2022/02/08 10:28:12;;;;;;;9.27;1.77;;;;;;;9.49;56.79;100242.59;5031548;28;20113;-75
2022/02/08 10:38:41;;;;;;;5.65;1.50;;;;;;;9.40;57.43;100250.63;5026668;28;20114;-79
2022/02/08 10:41:14;;;;;;;7.97;1.35;;;;;;;8.78;58.08;100242.63;5026820;28;20653;-79
2022/02/08 10:43:40;;;;;;;10.52;2.05;;;;;;;8.27;59.84;100233.34;5025891;28;20055;-80
2022/02/08 10:46:17;;;;;;;8.82;1.33;;;;;;;8.54;60.11;100255.88;5019105;28;20029;-65
2022/02/08 10:48:42;;;;;;;7.43;1.73;;;;;;;8.53;60.35;100249.66;5011524;28;20091;-64
2022/02/08 10:51:08;;;;;;;5.18;1.58;;;;;;;8.35;60.66;100230.72;5012566;28;20423;-66
2022/02/08 10:53:40;;;;;;;4.50;1.50;;;;;;;8.87;60.57;100242.69;5037279;28;20991;-68
2022/02/08 10:56:11;;;;;;;14.75;2.45;;;;;;;9.22;59.48;100236.34;5017474;28;20104;-68
2022/02/08 10:58:51;;;;;;;15.32;1.77;;;;;;;9.27;58.76;100236.69;5019912;28;20056;-70
2022/02/08 11:01:24;;;;;;;7.22;1.55;;;;;;;9.56;57.84;100236.38;5016629;28;20035;-69
2022/02/08 11:03:58;;;;;;;12.20;1.65;;;;;;;9.46;58.00;100203.22;5018683;28;20490;-69
2022/02/08 11:06:29;;;;;;;8.60;1.48;;;;;;;9.55;58.33;100228.41;5015219;28;20403;-66
2022/02/08 11:09:10;;;;;;;7.03;1.38;;;;;;;10.07;56.72;100228.28;5008694;28;20044;-67
2022/02/08 11:27:51;;;;;;;7.53;1.63;;;;;;;9.55;61.22;100213.06;5018745;28;20040;-68
2022/02/08 11:30:28;;;;;;;9.02;1.40;;;;;;;9.44;62.59;100211.50;5011539;28;20030;-74
2022/02/08 11:33:08;;;;;;;4.00;1.10;;;;;;;9.97;62.49;100216.75;5022177;28;20032;-72
2022/02/08 11:49:51;;;;;;;5.25;1.30;;;;;;;10.16;62.21;100200.22;5026686;28;20040;-73
2022/02/08 11:52:16;;;;;;;6.18;1.30;;;;;;;9.61;64.03;100141.28;5024906;28;20131;-73
2022/02/08 11:55:22;;;;;;;2.17;0.68;;;;;;;9.84;64.22;100196.44;5030340;28;20539;-70
2022/02/08 12:03:38;;;;;;;3.88;0.85;;;;;;;9.06;64.56;100196.56;5031682;28;20064;-73
2022/02/08 12:06:27;;;;;;;4.28;0.70;;;;;;;8.61;65.80;100173.34;5026916;28;20030;-75
2022/02/08 12:08:56;;;;;;;5.10;1.20;;;;;;;9.05;65.72;100199.47;5026854;28;20029;-74
2022/02/08 12:11:41;;;;;;;3.58;0.88;;;;;;;9.33;65.66;100186.63;5023919;28;20487;-69
2022/02/08 12:34:03;;;;;;;6.70;1.38;;;;;;;9.80;63.03;100178.03;5034053;28;20036;-74
2022/02/08 12:50:29;;;;;;;5.95;1.02;;;;;;;9.09;67.81;100188.19;5029668;28;20135;-77
2022/02/08 12:58:23;;;;;;;9.60;1.13;;;;;;;9.11;68.28;100188.00;5033561;28;20029;-75
2022/02/08 13:01:22;;;;;;;10.27;1.60;;;;;;;8.97;68.47;100193.00;5029659;28;20140;-78
2022/02/08 13:04:02;;;;;;;5.32;1.90;;;;;;;8.74;68.75;100173.78;5024030;28;20033;-79
2022/02/08 13:16:47;;;;;;;14.35;2.67;;;;;;;8.64;70.58;100169.47;5020482;28;20036;-78
2022/02/08 14:09:45;;;;;;;6.65;1.08;;;;;;;9.54;67.67;100116.81;5026004;28;20398;-74
2022/02/08 14:20:41;;;;;;;4.32;1.20;;;;;;;9.04;69.90;100136.53;5029124;28;20152;-76
2022/02/08 14:25:50;;;;;;;6.65;2.00;;;;;;;8.77;71.09;100113.25;5029367;28;20048;-76
2022/02/08 14:31:33;;;;;;;5.25;1.08;;;;;;;9.09;70.21;100117.13;5027493;28;20048;-76
2022/02/08 14:59:36;;;;;;;9.02;2.88;;;;;;;8.64;74.46;100107.44;5029689;28;20032;-73
2022/02/08 15:09:16;;;;;;;4.28;1.00;;;;;;;8.88;73.25;100118.38;5021559;28;20032;-66
2022/02/08 15:11:58;;;;;;;5.40;1.02;;;;;;;9.12;72.29;100135.72;5010126;28;20072;-66
2022/02/08 15:14:27;;;;;;;11.25;1.45;;;;;;;9.04;72.81;100138.34;5024638;28;20025;-65
2022/02/08 15:16:52;;;;;;;7.47;1.50;;;;;;;8.65;72.66;100095.66;5008802;28;20021;-65
2022/02/08 15:19:18;;;;;;;3.90;1.55;;;;;;;8.68;74.19;100136.63;5012545;28;20291;-66
2022/02/08 15:21:43;;;;;;;5.25;1.25;;;;;;;8.80;73.78;100126.41;5008820;28;20091;-66
2022/02/08 15:24:10;;;;;;;6.28;2.38;;;;;;;8.33;75.80;100134.81;5010708;28;20033;-66
2022/02/08 15:26:36;;;;;;;14.57;2.05;;;;;;;8.46;75.08;100126.34;5020546;28;20033;-65
2022/02/08 15:29:04;;;;;;;5.10;1.48;;;;;;;8.55;74.92;100147.00;5015985;28;20041;-65
2022/02/08 15:31:30;;;;;;;11.93;2.58;;;;;;;8.39;75.26;100118.06;5022110;28;20038;-65
2022/02/08 15:33:58;;;;;;;7.75;1.48;;;;;;;8.45;74.84;100151.63;5018978;28;20454;-64
2022/02/08 15:36:23;;;;;;;6.97;1.70;;;;;;;8.34;75.17;100150.00;5015152;28;20483;-66
2022/02/08 15:38:53;;;;;;;10.20;2.00;;;;;;;8.08;75.97;100117.59;5009308;28;20084;-64
2022/02/08 15:41:19;;;;;;;6.00;2.45;;;;;;;8.31;76.00;100151.16;5011544;28;20025;-65
2022/02/08 15:43:44;;;;;;;7.82;1.75;;;;;;;8.35;75.72;100136.34;5025110;28;20407;-66
2022/02/08 15:46:23;;;;;;;5.18;1.08;;;;;;;8.08;76.08;100142.69;5017701;28;20061;-65
2022/02/08 15:48:50;;;;;;;7.90;1.52;;;;;;;8.06;76.91;100147.38;5008408;28;20048;-66
2022/02/08 16:07:37;;;;;;;5.47;1.50;;;;;;;7.54;83.07;100165.19;5008210;28;20116;-67
2022/02/08 16:10:12;;;;;;;6.97;1.00;;;;;;;7.60;81.98;100165.44;5014402;28;20036;-67
2022/02/08 16:13:13;;;;;;;7.78;1.35;;;;;;;7.60;82.24;100165.44;5010964;28;20053;-67
2022/02/08 16:15:51;;;;;;;11.23;1.17;;;;;;;7.52;82.45;100162.66;5008037;28;20033;-66
2022/02/08 16:18:34;;;;;;;7.95;1.15;;;;;;;7.54;82.54;100168.72;5010899;28;20029;-71
2022/02/08 16:21:14;;;;;;;5.63;1.00;;;;;;;7.45;83.06;100170.47;5017814;28;20079;-73
2022/02/08 16:26:46;;;;;;;3.33;1.25;;;;;;;7.44;84.02;100179.56;5008534;28;20041;-71
2022/02/08 16:30:21;;;;;;;2.43;0.87;;;;;;;7.46;84.66;100179.41;5007522;28;20156;-71
2022/02/08 16:56:21;;;;;;;5.40;1.40;;;;;;;7.19;88.27;100183.78;5011615;28;20037;-70
2022/02/08 16:58:52;;;;;;;5.05;0.82;;;;;;;7.22;87.95;100190.72;5013871;28;20091;-70
2022/02/08 17:01:22;;;;;;;8.70;2.47;;;;;;;7.21;87.95;100181.78;5022881;28;20040;-69
2022/02/08 17:03:49;;;;;;;8.93;2.33;;;;;;;7.24;87.96;100186.88;5028064;28;20025;-69
2022/02/08 17:06:20;;;;;;;6.88;1.83;;;;;;;7.28;87.71;100178.50;5032614;28;20475;-69
2022/02/08 17:08:49;;;;;;;6.10;1.20;;;;;;;7.26;87.44;100175.97;5031899;28;20033;-70
2022/02/08 17:11:22;;;;;;;5.53;1.77;;;;;;;7.20;87.49;100166.66;5031924;28;20040;-70
2022/02/08 17:14:42;;;;;;;4.53;1.35;;;;;;;7.36;86.77;100189.38;5032111;28;20040;-70
2022/02/08 17:16:47;;;;;;;11.30;1.77;;;;;;;7.29;86.77;100188.28;5019731;28;20096;-70
2022/02/08 17:46:32;;;;;;;10.95;1.90;;;;;;;7.14;86.03;100186.06;5021913;28;20044;-69
2022/02/08 17:48:57;;;;;;;10.73;1.73;;;;;;;7.21;86.44;100197.09;5029716;28;20072;-69
2022/02/08 17:51:23;;;;;;;6.38;1.55;;;;;;;7.10;86.68;100199.94;5029739;28;20533;-68
2022/02/08 17:53:48;;;;;;;5.00;1.58;;;;;;;7.12;86.35;100198.81;5029586;28;20036;-68
2022/02/08 17:56:13;;;;;;;11.07;2.28;;;;;;;7.14;86.17;100195.97;5028012;28;20116;-68
2022/02/08 17:58:40;;;;;;;5.65;1.38;;;;;;;7.06;86.84;100196.72;5028549;28;20108;-68
2022/02/08 18:01:06;;;;;;;6.18;1.90;;;;;;;7.02;86.70;100192.59;5026795;28;20049;-68
2022/02/08 18:03:31;;;;;;;12.43;2.08;;;;;;;6.77;87.35;100167.22;5015747;28;20121;-68
2022/02/08 18:05:56;;;;;;;15.05;2.00;;;;;;;6.99;86.60;100192.91;5017446;28;20038;-68
2022/02/08 18:08:23;;;;;;;7.05;1.80;;;;;;;6.94;86.74;100196.06;5018247;28;20026;-68
2022/02/08 18:10:54;;;;;;;8.93;1.50;;;;;;;6.99;86.69;100198.28;5018388;28;20040;-69
2022/02/08 18:13:19;;;;;;;8.52;1.77;;;;;;;7.01;86.49;100202.53;5015771;28;20026;-69